FVRU weather

Rusape Airport
Rusape, Manicaland Province, Zimbabwe

Public forecast

Using degrees Celsius for public forecast. Weather courtesy of forecast.io.

METAR (pilot weather report)

Closest report is Robert Gabriel Mugabe International Airport, 69.4 nm (128.6 km) WNW. Retrieved 2019/05/24 00:00 UTC (26 minutes ago):

FVRG 240000Z 11006KT CAVOK 10/08 Q1027

TAF (pilot weather forecast)

Forecast is more than 12 hours old.

Closest forecast is Robert Gabriel Mugabe International Airport, 69.4 nm (128.6 km) WNW. Retrieved 2019/05/22 18:00 UTC (1 day ago):

TAF FVRG 221600Z 2218/2324 09008KT CAVOK